This is the latest recevied weather packets stored in our database for station/object HS5GDX-4. If no packets are shown the sender has not sent any weather packets the latest 10 day(s).
| Time | Temp. | Humidity | Pressure | Rain* | Wind** | Luminosity | Snow |
|---|---|---|---|---|---|---|---|
| 1788599969 | 30° C | 77% | 965 hPa | - | - | 0 W/m² | - |
| 1788599045 | 30.56° C | 76% | 965 hPa | - | - | 0 W/m² | - |
| 1788597196 | 30° C | 77% | 965 hPa | - | - | 0 W/m² | - |
| 1788596271 | 30° C | 77% | 965 hPa | - | - | 0 W/m² | - |
| 1788595347 | 30° C | 76% | 965 hPa | - | - | 0 W/m² | - |
| 1788594423 | 30° C | 77% | 965 hPa | - | - | 0 W/m² | - |
| 1788593499 | 30° C | 76% | 965 hPa | - | - | 0 W/m² | - |
| 1788592574 | 30° C | 76% | 966 hPa | - | - | 0 W/m² | - |
| 1788591649 | 30° C | 76% | 966 hPa | - | - | 0 W/m² | - |
| 1788590725 | 29.44° C | 75% | 966 hPa | - | - | 0 W/m² | - |
| 1788589801 | 28.89° C | 79% | 967 hPa | - | - | 0 W/m² | - |
| 1788588876 | 30° C | 75% | 967 hPa | - | - | 0 W/m² | - |
| 1788587952 | 29.44° C | 74% | 967 hPa | - | - | 0 W/m² | - |
| 1788561083 | 27.78° C | 74% | 967 hPa | - | - | 0 W/m² | - |
| 1788560159 | 27.78° C | 74% | 966 hPa | - | - | 0 W/m² | - |
| 1788556461 | 27.78° C | 76% | 966 hPa | - | - | 0 W/m² | - |
| 1788552764 | 28.33° C | 74% | 966 hPa | - | - | 0 W/m² | - |
| 1788549991 | 28.33° C | 75% | 967 hPa | - | - | 0 W/m² | - |
| 1788549067 | 28.33° C | 75% | 967 hPa | - | - | 0 W/m² | - |
| 1788548142 | 28.33° C | 75% | 967 hPa | - | - | 0 W/m² | - |
| 1788547218 | 28.33° C | 74% | 967 hPa | - | - | 0 W/m² | - |
| 1788536125 | 29.44° C | 71% | 968 hPa | - | - | 0 W/m² | - |
| 1788534276 | 29.44° C | 71% | 968 hPa | - | - | 0 W/m² | - |
| 1788532428 | 28.89° C | 72% | 968 hPa | - | - | 0 W/m² | - |
| 1788531504 | 28.89° C | 73% | 967 hPa | - | - | 0 W/m² | - |
* Rain since midnight (hover to see other rain measurements)
** Current wind speed in m/s (hover to see current wind gust speed)